Yellowstone Airport West Yellowstone US
ICAO: KWYS
IATA: WYS
Category: Medium
Scheduled Services: No

Elevation: 6649 ft
TransAlt. 18000 ft.

Airport Communications:
SALT LAKE CITY CNTR:132.4
GREAT FALLS RDO:119.4
CTAF/UNICOM:123

KWYS Zoom In..

If you have problems with the map follow the link
https://www.worldairports.se/pages/airport.php?
ICAO=KWYS

Runways:

(A) RW 01 length 8400 ft width 150 ft
ILS 110.70 / hdg 12

(B) RW 19 length 8400 ft width 150 ft
---- / hdg 192

Location; KWYS
Day. 05 / Time. 21.50 Zulu
* Altimeter: 30.09
* Temperature: -00° c. -32°f.
* Wind from: 200° Speed 11 kn.
Dewpoint: -02° c.
Visibility: 10 Statute Miles.
Clouds: Overcast 1400 ft.

KWYS 052150Z AUTO 20011KT 10SM OVC014 M00/M02 A3009 RMK AO2


Wind From 200°
Speed 11 kn.

 
 
jpsmedia worldairports.se 2019   terms of use